Time;durP1;ratioP1;P1;durP2;ratioP2;P2;SDS_P1;SDS_P2;PMS_P1;PMS_P2;Temp;Humidity;BMP_temperature;BMP_pressure;BME280_temperature;BME280_humidity;BME280_pressure;Samples;Min_cycle;Max_cycle;Signal;HPM_P1;HPM_P2
2021/04/01 00:01:47;;;;;;;9.95;4.55;;;9.50;77.60;;;;;;4878635;29;20386;-76
2021/04/01 00:04:13;;;;;;;7.65;3.85;;;9.50;77.70;;;;;;4878568;29;20359;-77
2021/04/01 00:06:40;;;;;;;10.75;5.15;;;9.60;78.00;;;;;;4877301;29;20501;-77
2021/04/01 00:09:06;;;;;;;12.40;4.60;;;9.50;78.60;;;;;;4878974;29;20052;-77
2021/04/01 00:11:33;;;;;;;7.55;4.15;;;9.30;79.40;;;;;;4878618;29;20394;-78
2021/04/01 00:14:04;;;;;;;6.10;4.35;;;9.20;80.30;;;;;;4876923;29;20474;-77
2021/04/01 00:16:34;;;;;;;7.15;3.92;;;9.20;81.70;;;;;;4878715;29;20052;-77
2021/04/01 00:19:02;;;;;;;7.40;4.50;;;9.20;82.00;;;;;;4878596;29;20037;-77
2021/04/01 00:21:29;;;;;;;6.82;4.60;;;9.30;82.60;;;;;;4878632;29;20045;-77
2021/04/01 00:23:55;;;;;;;8.05;5.30;;;9.30;82.80;;;;;;4878664;29;20052;-76
2021/04/01 00:26:22;;;;;;;6.00;4.53;;;9.20;84.00;;;;;;4878646;29;20041;-76
2021/04/01 00:28:49;;;;;;;9.50;4.95;;;9.20;83.90;;;;;;4879218;29;20387;-76
2021/04/01 00:31:15;;;;;;;8.07;4.22;;;9.10;84.90;;;;;;4878562;29;20037;-75
2021/04/01 00:33:44;;;;;;;8.93;5.10;;;9.10;86.00;;;;;;4878538;29;20041;-77
2021/04/01 00:36:11;;;;;;;7.50;4.55;;;9.10;86.90;;;;;;4878746;29;20041;-77
2021/04/01 00:38:37;;;;;;;11.13;4.68;;;9.20;86.10;;;;;;4877371;29;20510;-77
2021/04/01 00:41:03;;;;;;;7.38;4.45;;;9.20;85.80;;;;;;4878576;29;20040;-77
2021/04/01 00:43:33;;;;;;;13.52;5.88;;;9.10;86.00;;;;;;4877607;29;20050;-77
2021/04/01 00:46:02;;;;;;;10.07;5.10;;;9.00;86.60;;;;;;4878239;29;20040;-77
2021/04/01 00:48:28;;;;;;;7.93;4.80;;;9.00;87.00;;;;;;4878305;29;20037;-77
2021/04/01 00:50:55;;;;;;;8.82;5.72;;;8.90;88.00;;;;;;4877219;29;20049;-77
2021/04/01 00:53:21;;;;;;;8.80;5.05;;;8.80;89.20;;;;;;4877839;29;20033;-76
2021/04/01 00:55:50;;;;;;;7.88;4.70;;;8.80;89.80;;;;;;4877898;29;20045;-77
2021/04/01 00:58:26;;;;;;;7.30;4.22;;;8.80;89.70;;;;;;4878086;29;20060;-77
2021/04/01 01:03:38;;;;;;;8.15;4.72;;;8.80;90.20;;;;;;4866664;29;20411;-77
2021/04/01 01:06:16;;;;;;;6.45;4.43;;;8.70;90.90;;;;;;4877734;29;20041;-77
2021/04/01 01:08:55;;;;;;;8.55;4.45;;;8.70;90.70;;;;;;4877870;29;20049;-77
2021/04/01 01:12:06;;;;;;;7.43;5.05;;;8.60;91.00;;;;;;4889214;29;20044;-77
2021/04/01 01:14:38;;;;;;;8.57;4.50;;;8.60;90.90;;;;;;4838360;29;20061;-75
2021/04/01 01:17:07;;;;;;;14.52;4.97;;;8.60;91.30;;;;;;4877026;29;20057;-77
2021/04/01 01:19:37;;;;;;;7.65;4.68;;;8.70;92.30;;;;;;4881243;29;20025;-76
2021/04/01 01:22:08;;;;;;;10.07;5.53;;;8.70;92.80;;;;;;4881235;29;20037;-76
2021/04/01 01:24:35;;;;;;;11.52;5.20;;;8.70;93.20;;;;;;4880237;29;20063;-77
2021/04/01 01:27:03;;;;;;;10.18;5.15;;;8.60;93.30;;;;;;4881620;29;20029;-76
2021/04/01 01:29:59;;;;;;;9.32;5.18;;;8.70;93.80;;;;;;4883622;29;20036;-76
2021/04/01 01:32:55;;;;;;;10.70;5.22;;;8.60;94.30;;;;;;4881256;29;20033;-76
2021/04/01 01:35:44;;;;;;;10.23;5.72;;;8.60;94.40;;;;;;4881132;29;20042;-77
2021/04/01 01:42:55;;;;;;;;;;;;;;;;;;;;;
2021/04/01 01:46:42;;;;;;;9.50;5.72;;;8.40;95.90;;;;;;4792610;29;20066;-77
2021/04/01 01:50:21;;;;;;;9.48;5.55;;;8.40;96.70;;;;;;4783386;30;20524;-77
2021/04/01 01:54:06;;;;;;;;;;;;;;;;;;;;;
2021/04/01 02:09:25;;;;;;;12.50;7.68;;;8.30;97.40;;;;;;4637944;30;20066;-78
2021/04/01 02:12:03;;;;;;;10.00;5.97;;;8.30;97.40;;;;;;4618800;30;20048;-76
2021/04/01 02:14:38;;;;;;;10.95;6.63;;;8.20;97.40;;;;;;4628180;31;20059;-75
2021/04/01 02:17:10;;;;;;;14.82;8.13;;;8.10;97.90;;;;;;4630630;30;20047;-76
2021/04/01 02:19:36;;;;;;;12.90;9.30;;;8.10;98.80;;;;;;4646245;30;20509;-77
2021/04/01 02:22:03;;;;;;;15.55;7.47;;;8.00;98.70;;;;;;4675700;30;20061;-77
2021/04/01 02:24:29;;;;;;;11.90;6.75;;;8.10;99.50;;;;;;4705816;30;20518;-77
2021/04/01 02:26:56;;;;;;;10.45;7.93;;;8.10;99.50;;;;;;4714359;30;20049;-77
2021/04/01 02:29:25;;;;;;;10.38;7.43;;;8.00;99.90;;;;;;4714608;30;20587;-77
2021/04/01 02:31:51;;;;;;;10.23;7.28;;;8.00;99.90;;;;;;4715169;30;20052;-77
2021/04/01 02:34:19;;;;;;;13.38;6.38;;;8.10;99.90;;;;;;4790622;29;20046;-77
2021/04/01 02:36:45;;;;;;;9.77;5.68;;;8.00;99.90;;;;;;4803393;29;20071;-77
2021/04/01 02:39:12;;;;;;;10.48;6.10;;;8.10;99.90;;;;;;4803777;29;20073;-78
2021/04/01 02:41:39;;;;;;;14.57;6.38;;;8.10;99.60;;;;;;4813392;29;20046;-78
2021/04/01 02:44:05;;;;;;;10.50;6.15;;;7.90;99.90;;;;;;4820081;29;20536;-77
2021/04/01 02:46:32;;;;;;;15.80;9.30;;;8.00;99.90;;;;;;4861048;29;20079;-77
2021/04/01 02:48:59;;;;;;;13.77;9.90;;;8.00;99.90;;;;;;4861526;29;20045;-77
2021/04/01 02:51:25;;;;;;;13.07;9.20;;;7.90;99.90;;;;;;4861008;29;20395;-76
2021/04/01 02:53:51;;;;;;;11.48;9.70;;;7.80;99.90;;;;;;4860623;29;20045;-75
2021/04/01 02:56:17;;;;;;;16.35;9.40;;;7.80;99.90;;;;;;4861265;29;20050;-77
2021/04/01 02:58:43;;;;;;;15.98;10.30;;;7.70;99.90;;;;;;4860316;29;20426;-77
2021/04/01 03:01:10;;;;;;;11.85;8.52;;;7.60;99.90;;;;;;4861142;29;20052;-77
2021/04/01 03:03:44;;;;;;;12.50;7.30;;;7.60;99.90;;;;;;4860750;29;20033;-78
2021/04/01 03:06:10;;;;;;;10.55;7.30;;;7.60;99.90;;;;;;4861244;29;20045;-77
2021/04/01 03:08:36;;;;;;;13.00;5.75;;;7.60;99.90;;;;;;4860368;29;20034;-77
2021/04/01 03:11:03;;;;;;;11.52;6.22;;;7.60;99.90;;;;;;4860947;29;20037;-76
2021/04/01 03:13:29;;;;;;;8.93;6.25;;;7.60;99.90;;;;;;4861041;29;20033;-78
2021/04/01 03:15:55;;;;;;;10.80;7.10;;;7.50;99.90;;;;;;4861277;29;20053;-77
2021/04/01 03:18:22;;;;;;;10.32;5.85;;;7.50;99.90;;;;;;4860813;29;20049;-77
2021/04/01 03:20:49;;;;;;;12.40;7.18;;;7.50;99.90;;;;;;4861041;29;20049;-77
2021/04/01 03:23:15;;;;;;;10.52;6.93;;;7.50;99.90;;;;;;4860423;29;20025;-77
2021/04/01 03:25:45;;;;;;;10.70;7.18;;;7.40;99.90;;;;;;4860106;29;20396;-78
2021/04/01 03:28:12;;;;;;;10.70;7.97;;;7.40;99.90;;;;;;4860669;29;20387;-77
2021/04/01 03:31:24;;;;;;;8.75;7.07;;;7.30;99.90;;;;;;4859953;29;20042;-77
2021/04/01 03:33:25;;;;;;;11.52;8.10;;;7.30;99.90;;;;;;4853472;29;20498;-77
2021/04/01 03:35:54;;;;;;;9.82;7.28;;;7.20;99.90;;;;;;4858880;29;20056;-76
2021/04/01 03:38:21;;;;;;;13.43;7.93;;;7.10;99.90;;;;;;4859951;29;20041;-76
2021/04/01 03:40:50;;;;;;;14.13;7.80;;;7.00;99.90;;;;;;4859872;29;20056;-77
2021/04/01 03:43:16;;;;;;;13.00;7.35;;;7.10;99.90;;;;;;4861466;29;20030;-77
2021/04/01 03:45:42;;;;;;;14.95;7.68;;;7.00;99.90;;;;;;4878802;29;20057;-76
2021/04/01 03:48:09;;;;;;;10.73;6.35;;;7.00;99.90;;;;;;4878344;29;20044;-77
2021/04/01 03:50:35;;;;;;;12.80;6.60;;;7.10;99.90;;;;;;4878227;29;20045;-77
2021/04/01 03:53:01;;;;;;;10.73;6.95;;;7.10;99.90;;;;;;4877848;29;20056;-78
2021/04/01 03:55:41;;;;;;;16.20;8.00;;;7.10;99.90;;;;;;4878454;29;20049;-78
2021/04/01 04:00:55;;;;;;;11.15;8.10;;;7.10;99.90;;;;;;4878289;29;20056;-76
2021/04/01 04:11:06;;;;;;;14.38;9.85;;;6.70;99.90;;;;;;4878592;29;20029;-77
2021/04/01 04:13:42;;;;;;;12.57;7.55;;;6.80;99.90;;;;;;4877888;29;20045;-78
2021/04/01 04:16:08;;;;;;;11.05;7.18;;;6.80;99.90;;;;;;4878868;29;20052;-76
2021/04/01 04:18:34;;;;;;;12.27;7.43;;;6.70;99.90;;;;;;4879964;29;20052;-77
2021/04/01 04:21:01;;;;;;;10.43;7.15;;;6.80;99.90;;;;;;4891165;29;20053;-76
2021/04/01 04:23:27;;;;;;;16.00;7.82;;;6.80;99.90;;;;;;4877623;29;20040;-77
2021/04/01 04:25:56;;;;;;;14.38;8.18;;;6.80;99.90;;;;;;4877232;29;20414;-77
2021/04/01 04:28:33;;;;;;;11.85;7.45;;;6.90;99.90;;;;;;4879832;29;20037;-77
2021/04/01 04:31:03;;;;;;;14.27;7.88;;;6.80;99.90;;;;;;4879207;29;20049;-77
2021/04/01 04:33:33;;;;;;;15.23;8.25;;;6.80;99.90;;;;;;4888070;29;20037;-77
2021/04/01 04:35:59;;;;;;;15.93;8.50;;;6.70;99.90;;;;;;4878333;29;20037;-76
2021/04/01 04:38:27;;;;;;;16.35;8.45;;;6.60;99.90;;;;;;4882184;29;20044;-76
2021/04/01 04:40:56;;;;;;;10.45;8.23;;;6.70;99.90;;;;;;4878638;29;20494;-76
2021/04/01 04:43:28;;;;;;;12.40;8.95;;;6.70;99.90;;;;;;4879404;29;20044;-77
2021/04/01 04:45:55;;;;;;;14.73;7.90;;;6.70;99.90;;;;;;4878023;29;20041;-76
2021/04/01 04:48:25;;;;;;;15.32;7.70;;;6.70;99.90;;;;;;4884938;29;20037;-75
2021/04/01 04:50:51;;;;;;;12.40;8.43;;;6.70;99.90;;;;;;4889970;29;20041;-77
2021/04/01 04:53:18;;;;;;;12.00;8.32;;;6.70;99.90;;;;;;4882108;29;20048;-77
2021/04/01 04:56:01;;;;;;;16.15;9.13;;;6.60;99.90;;;;;;4881370;29;20073;-77
2021/04/01 04:58:40;;;;;;;17.40;10.18;;;6.50;99.90;;;;;;4881963;29;20499;-74
2021/04/01 05:04:36;;;;;;;16.88;10.20;;;6.60;99.90;;;;;;4881742;29;20040;-77
2021/04/01 05:09:09;;;;;;;16.50;9.95;;;6.60;99.90;;;;;;4881574;29;20033;-77
2021/04/01 05:11:35;;;;;;;16.30;10.20;;;6.60;99.90;;;;;;4881050;29;20518;-77
2021/04/01 05:14:02;;;;;;;15.40;9.57;;;6.60;99.90;;;;;;4881890;29;20037;-76
2021/04/01 05:16:29;;;;;;;13.27;8.20;;;6.70;99.90;;;;;;4881108;29;20600;-77
2021/04/01 05:18:57;;;;;;;15.10;7.97;;;6.80;99.90;;;;;;4880973;29;20033;-76
2021/04/01 05:21:32;;;;;;;12.25;8.80;;;6.80;99.90;;;;;;4881001;29;20079;-76
2021/04/01 05:24:00;;;;;;;12.25;7.53;;;6.80;99.90;;;;;;4881464;29;20037;-76
2021/04/01 05:29:13;;;;;;;13.13;8.18;;;7.00;99.90;;;;;;4881489;29;20033;-78
2021/04/01 05:31:42;;;;;;;11.68;7.95;;;7.00;99.90;;;;;;4880921;29;20402;-78
2021/04/01 05:34:09;;;;;;;14.02;7.55;;;7.10;99.90;;;;;;4881708;29;20493;-77
2021/04/01 05:36:39;;;;;;;11.90;6.82;;;7.10;99.90;;;;;;4880897;29;20041;-77
2021/04/01 05:39:14;;;;;;;12.30;7.10;;;7.10;99.90;;;;;;4881429;29;20482;-76
2021/04/01 05:41:41;;;;;;;9.63;6.68;;;7.20;99.90;;;;;;4881440;29;20399;-76
2021/04/01 05:47:07;;;;;;;25.23;13.77;;;7.60;99.90;;;;;;4881779;29;20040;-77
2021/04/01 05:56:10;;;;;;;13.90;6.90;;;9.90;95.80;;;;;;4880828;29;20487;-77
2021/04/01 06:01:33;;;;;;;13.75;7.35;;;11.60;86.90;;;;;;4880566;29;20040;-78
2021/04/01 06:07:01;;;;;;;10.00;6.28;;;13.60;71.00;;;;;;4880596;29;20033;-77
2021/04/01 06:09:42;;;;;;;9.20;6.20;;;13.20;70.70;;;;;;4892413;29;20490;-77
2021/04/01 06:12:09;;;;;;;8.75;6.07;;;13.90;70.00;;;;;;4882095;29;20394;-77
2021/04/01 06:14:58;;;;;;;12.68;5.85;;;14.30;68.20;;;;;;4887927;29;20375;-77
2021/04/01 06:17:29;;;;;;;12.82;6.88;;;14.70;66.30;;;;;;4880967;29;20032;-79
2021/04/01 06:19:58;;;;;;;10.57;5.95;;;15.60;63.80;;;;;;4881363;29;20049;-81
2021/04/01 06:22:31;;;;;;;8.38;5.18;;;16.70;60.80;;;;;;4880749;29;20048;-80
2021/04/01 06:24:58;;;;;;;13.18;6.43;;;17.70;57.40;;;;;;4880681;29;20475;-81
2021/04/01 06:27:34;;;;;;;65.32;36.50;;;18.30;56.10;;;;;;4880925;29;20044;-81
2021/04/01 06:30:18;;;;;;;97.68;52.10;;;18.40;54.70;;;;;;4881251;29;20043;-81
2021/04/01 06:32:57;;;;;;;118.18;66.80;;;18.60;55.40;;;;;;4879816;29;20040;-80
2021/04/01 06:35:26;;;;;;;46.10;25.13;;;19.30;53.20;;;;;;4880519;29;20052;-81
2021/04/01 06:38:19;;;;;;;188.18;104.68;;;17.60;55.20;;;;;;4880782;29;20033;-81
2021/04/01 06:40:56;;;;;;;82.20;46.85;;;16.40;58.10;;;;;;4880198;29;20037;-81
2021/04/01 06:43:52;;;;;;;215.20;87.27;;;15.60;60.40;;;;;;4880185;29;20367;-80
2021/04/01 06:46:19;;;;;;;418.63;166.18;;;15.40;61.20;;;;;;4880309;29;20410;-80
2021/04/01 06:51:41;;;;;;;60.15;26.17;;;15.70;61.90;;;;;;4880255;29;20399;-79
2021/04/01 06:54:15;;;;;;;98.65;45.55;;;16.80;59.10;;;;;;4880244;29;20393;-80
2021/04/01 06:59:56;;;;;;;55.58;25.40;;;17.60;56.00;;;;;;4879223;29;20435;-81
2021/04/01 07:02:34;;;;;;;26.48;13.27;;;16.80;57.40;;;;;;4879912;29;20029;-80
2021/04/01 07:05:35;;;;;;;56.85;27.15;;;16.00;58.90;;;;;;4879410;29;20032;-79
2021/04/01 07:08:06;;;;;;;200.75;92.43;;;15.40;60.20;;;;;;4879887;29;20033;-81
2021/04/01 07:11:08;;;;;;;80.80;33.88;;;15.10;61.10;;;;;;4880437;29;20029;-80
2021/04/01 07:13:47;;;;;;;1013.78;456.58;;;14.80;62.00;;;;;;4880274;29;20044;-78
2021/04/01 07:48:00;;;;;;;41.38;28.38;;;21.40;49.40;;;;;;4879190;29;20041;-81
2021/04/01 07:50:40;;;;;;;44.08;27.52;;;21.60;49.50;;;;;;4878817;29;20048;-78
2021/04/01 07:53:22;;;;;;;12.07;8.35;;;21.60;49.70;;;;;;4877611;29;20049;-81
2021/04/01 07:56:05;;;;;;;15.07;8.70;;;21.40;49.40;;;;;;4878493;29;20064;-80
2021/04/01 08:01:48;;;;;;;15.38;6.72;;;20.60;50.20;;;;;;4878791;29;20032;-81
2021/04/01 08:04:18;;;;;;;11.07;7.30;;;20.70;50.40;;;;;;4879147;29;20398;-82
2021/04/01 08:06:47;;;;;;;26.30;23.92;;;21.80;48.50;;;;;;4878863;29;20256;-81
2021/04/01 08:09:25;;;;;;;8.05;6.38;;;21.90;47.00;;;;;;4879338;29;20044;-81
2021/04/01 08:12:00;;;;;;;8.02;6.68;;;21.00;48.60;;;;;;4878269;29;20045;-81
2021/04/01 08:14:35;;;;;;;12.18;6.22;;;21.90;48.40;;;;;;4878903;29;20467;-80
2021/04/01 08:17:17;;;;;;;10.55;6.82;;;22.00;47.80;;;;;;4878801;29;20045;-80
2021/04/01 08:19:48;;;;;;;11.27;5.78;;;21.20;47.50;;;;;;4878382;29;20037;-79
2021/04/01 08:22:17;;;;;;;8.55;6.65;;;20.40;49.20;;;;;;4878608;29;20104;-79
2021/04/01 08:25:00;;;;;;;9.82;5.75;;;20.60;48.70;;;;;;4878538;29;20206;-80
2021/04/01 08:27:38;;;;;;;10.30;6.82;;;21.30;49.10;;;;;;4882426;29;20044;-80
2021/04/01 08:35:33;;;;;;;8.57;6.38;;;21.30;47.90;;;;;;4882029;29;20052;-83
2021/04/01 08:38:12;;;;;;;11.98;6.88;;;22.30;47.00;;;;;;4881792;29;20033;-78
2021/04/01 08:40:44;;;;;;;10.13;6.03;;;22.60;45.60;;;;;;4881584;29;20041;-82
2021/04/01 08:43:14;;;;;;;9.20;5.47;;;22.80;45.90;;;;;;4881919;29;20037;-79
2021/04/01 08:45:59;;;;;;;10.75;5.63;;;23.00;45.10;;;;;;4880739;29;20483;-79
2021/04/01 08:48:58;;;;;;;10.45;5.88;;;21.50;46.20;;;;;;4882514;29;20363;-78
2021/04/01 08:52:00;;;;;;;11.10;6.07;;;21.40;47.60;;;;;;4881742;29;20398;-79
2021/04/01 08:54:40;;;;;;;13.07;6.70;;;22.30;46.70;;;;;;4881662;29;20045;-75
2021/04/01 08:57:11;;;;;;;11.50;7.28;;;22.40;45.90;;;;;;4881676;29;20060;-80
2021/04/01 09:00:01;;;;;;;13.20;7.13;;;23.40;45.00;;;;;;4880228;29;20040;-80
2021/04/01 09:02:31;;;;;;;11.25;7.03;;;23.00;44.70;;;;;;4898639;29;20036;-77
2021/04/01 09:05:02;;;;;;;8.38;5.78;;;23.40;44.20;;;;;;4881561;29;20041;-77
2021/04/01 09:07:42;;;;;;;11.00;6.75;;;24.10;43.50;;;;;;4881230;29;20037;-78
2021/04/01 09:10:20;;;;;;;15.45;6.57;;;24.60;42.50;;;;;;4881473;29;20394;-76
2021/04/01 09:12:56;;;;;;;14.73;7.45;;;24.30;43.20;;;;;;4881208;29;20363;-77
2021/04/01 09:15:33;;;;;;;10.50;6.78;;;23.20;42.80;;;;;;4891302;29;20051;-78
2021/04/01 09:17:59;;;;;;;10.55;7.07;;;22.50;43.90;;;;;;4898708;29;20033;-78
2021/04/01 09:20:27;;;;;;;9.20;7.45;;;22.00;44.50;;;;;;4904710;29;20048;-76
2021/04/01 09:23:04;;;;;;;10.32;7.30;;;22.70;44.30;;;;;;4903439;29;20036;-77
2021/04/01 09:25:41;;;;;;;12.02;7.47;;;23.50;43.10;;;;;;4897300;29;20372;-77
2021/04/01 09:28:10;;;;;;;13.80;7.60;;;23.70;43.50;;;;;;4881563;29;20463;-77
2021/04/01 09:30:37;;;;;;;11.77;7.55;;;23.70;43.10;;;;;;4880292;29;20037;-80
2021/04/01 09:33:23;;;;;;;15.38;8.10;;;23.20;42.70;;;;;;4885934;29;20033;-80
2021/04/01 09:35:49;;;;;;;14.85;8.68;;;23.80;43.40;;;;;;4896987;29;20044;-80
2021/04/01 09:38:17;;;;;;;13.52;8.52;;;23.80;43.20;;;;;;4909131;29;20110;-80
2021/04/01 09:40:45;;;;;;;11.82;8.30;;;23.30;43.20;;;;;;4880628;29;20040;-81
2021/04/01 09:43:18;;;;;;;17.38;8.57;;;22.90;43.20;;;;;;4881311;29;20043;-89
2021/04/01 09:45:50;;;;;;;14.02;8.43;;;22.70;43.80;;;;;;4879849;29;20068;-90
2021/04/01 09:48:23;;;;;;;15.68;9.27;;;22.00;44.70;;;;;;4900143;29;20040;-77
2021/04/01 09:50:54;;;;;;;13.15;9.95;;;21.80;45.60;;;;;;4880068;29;20599;-78
2021/04/01 09:53:23;;;;;;;18.80;10.07;;;23.20;43.60;;;;;;4881266;29;20490;-81
2021/04/01 09:55:55;;;;;;;16.40;9.55;;;23.40;42.70;;;;;;4879995;29;20049;-81
2021/04/01 09:58:32;;;;;;;18.25;10.68;;;23.00;43.60;;;;;;4881089;29;20037;-77
2021/04/01 10:04:07;;;;;;;14.52;10.93;;;24.70;41.40;;;;;;4880082;29;20037;-79
2021/04/01 10:06:41;;;;;;;20.17;10.27;;;23.70;42.60;;;;;;4879965;29;20462;-79
2021/04/01 10:09:16;;;;;;;18.88;11.80;;;23.60;43.70;;;;;;4880855;29;20033;-78
2021/04/01 10:11:47;;;;;;;14.63;11.05;;;23.60;43.10;;;;;;4884517;29;20036;-80
2021/04/01 10:14:14;;;;;;;18.02;11.70;;;23.50;42.50;;;;;;4880751;29;20036;-80
2021/04/01 10:17:09;;;;;;;23.00;13.00;;;22.40;43.40;;;;;;4880406;29;20041;-80
2021/04/01 10:19:42;;;;;;;19.58;11.75;;;22.20;45.00;;;;;;4879256;29;20059;-80
2021/04/01 10:22:27;;;;;;;22.05;14.10;;;22.50;43.60;;;;;;4880268;29;20072;-81
2021/04/01 10:25:21;;;;;;;25.23;13.00;;;23.20;43.30;;;;;;4880234;29;20064;-79
2021/04/01 10:30:22;;;;;;;21.10;12.30;;;22.60;43.90;;;;;;4880611;29;20033;-80
2021/04/01 10:32:48;;;;;;;21.88;13.82;;;22.50;43.60;;;;;;4880030;29;20029;-80
2021/04/01 10:35:16;;;;;;;22.40;13.57;;;22.40;43.30;;;;;;4880742;29;20025;-80
2021/04/01 10:37:51;;;;;;;21.25;14.55;;;22.50;42.90;;;;;;4877951;29;20069;-79
2021/04/01 10:40:20;;;;;;;24.05;14.65;;;22.60;42.70;;;;;;4880139;29;20044;-80
2021/04/01 10:42:49;;;;;;;29.52;14.40;;;22.90;43.10;;;;;;4879467;29;20045;-80
2021/04/01 10:45:22;;;;;;;24.00;14.98;;;22.60;42.80;;;;;;4879679;29;20379;-79
2021/04/01 10:48:23;;;;;;;23.13;14.57;;;22.10;43.60;;;;;;4878628;29;20475;-79
2021/04/01 10:50:51;;;;;;;24.70;15.32;;;22.00;43.90;;;;;;4879792;29;20417;-80
2021/04/01 10:53:22;;;;;;;22.08;14.75;;;22.30;43.60;;;;;;4879966;29;20060;-79
2021/04/01 10:55:49;;;;;;;25.05;16.30;;;22.20;44.00;;;;;;4879478;29;20052;-79
2021/04/01 10:58:16;;;;;;;26.45;14.43;;;22.30;43.90;;;;;;4880215;29;20033;-78
2021/04/01 11:00:52;;;;;;;21.45;13.88;;;22.20;44.50;;;;;;4879704;29;20025;-78
2021/04/01 11:03:23;;;;;;;23.27;15.77;;;22.50;44.60;;;;;;4879812;29;20040;-79
2021/04/01 11:05:50;;;;;;;23.30;14.43;;;22.20;44.10;;;;;;4879227;29;20036;-79
2021/04/01 11:08:19;;;;;;;27.65;17.00;;;22.20;44.50;;;;;;4880174;29;20037;-77
2021/04/01 11:10:55;;;;;;;25.50;17.15;;;22.30;43.70;;;;;;4887864;29;20363;-79
2021/04/01 11:13:30;;;;;;;26.67;17.55;;;22.40;43.40;;;;;;4880157;29;20037;-79
2021/04/01 11:15:58;;;;;;;24.00;16.30;;;22.30;42.80;;;;;;4878604;29;20501;-79
2021/04/01 11:18:27;;;;;;;26.25;16.90;;;22.40;43.60;;;;;;4879416;29;20040;-79
2021/04/01 11:20:54;;;;;;;26.90;16.77;;;22.50;43.20;;;;;;4879601;29;20479;-79
2021/04/01 11:23:23;;;;;;;28.65;17.15;;;22.50;43.50;;;;;;4878946;29;20139;-79
2021/04/01 11:25:51;;;;;;;27.73;17.77;;;22.60;43.60;;;;;;4878937;29;20040;-78
2021/04/01 11:28:18;;;;;;;24.00;15.70;;;22.60;43.20;;;;;;4879650;29;20459;-79
2021/04/01 11:30:55;;;;;;;32.13;17.42;;;22.70;43.50;;;;;;4878964;29;20049;-78
2021/04/01 11:33:24;;;;;;;28.05;17.52;;;22.80;43.50;;;;;;4879352;29;20049;-78
2021/04/01 11:38:38;;;;;;;29.95;16.13;;;22.70;43.40;;;;;;4878514;29;20053;-78
2021/04/01 11:41:07;;;;;;;32.63;18.40;;;22.90;43.60;;;;;;4879096;29;20351;-80
2021/04/01 11:43:35;;;;;;;25.40;16.88;;;22.90;43.20;;;;;;4878735;29;20375;-78
2021/04/01 11:46:33;;;;;;;27.58;18.50;;;23.10;43.50;;;;;;4879168;29;20402;-79
2021/04/01 11:49:00;;;;;;;32.42;16.98;;;22.90;44.00;;;;;;4879293;29;20041;-78
2021/04/01 11:51:31;;;;;;;28.92;18.50;;;22.90;44.30;;;;;;4879093;29;20399;-79
2021/04/01 11:53:58;;;;;;;35.30;19.30;;;23.00;43.70;;;;;;4879156;29;20044;-79
2021/04/01 11:56:37;;;;;;;33.95;20.50;;;23.10;43.10;;;;;;4878850;29;20048;-80
2021/04/01 11:59:24;;;;;;;29.88;18.25;;;22.90;43.20;;;;;;4878752;29;20475;-79
2021/04/01 12:01:58;;;;;;;33.60;20.40;;;23.10;43.10;;;;;;4878796;29;20033;-79
2021/04/01 12:04:28;;;;;;;32.70;20.77;;;23.00;42.70;;;;;;4878957;29;20029;-78
2021/04/01 12:06:55;;;;;;;;;;;23.00;43.20;;;;;;4879087;29;20059;-79
2021/04/01 12:09:21;;;;;;;30.85;19.25;;;23.10;43.20;;;;;;4879817;29;19922;-79
2021/04/01 12:11:48;;;;;;;38.97;24.98;;;23.40;42.60;;;;;;4878911;29;20051;-79
2021/04/01 12:14:16;;;;;;;35.70;23.75;;;23.00;41.70;;;;;;4878034;29;20089;-79
2021/04/01 12:16:44;;;;;;;40.55;24.60;;;22.80;42.20;;;;;;4877975;29;20071;-79
2021/04/01 12:19:10;;;;;;;37.83;24.63;;;22.90;42.30;;;;;;4878461;29;20459;-78
2021/04/01 12:21:38;;;;;;;40.17;27.25;;;23.00;41.20;;;;;;4878073;29;20040;-78
2021/04/01 12:24:06;;;;;;;35.92;25.15;;;22.90;40.50;;;;;;4878715;29;20041;-79
2021/04/01 12:26:46;;;;;;;35.38;24.45;;;23.00;41.00;;;;;;4878230;29;20040;-78
2021/04/01 12:29:13;;;;;;;35.15;23.10;;;22.90;39.40;;;;;;4892432;29;20041;-79
2021/04/01 12:31:42;;;;;;;34.15;23.05;;;22.80;38.90;;;;;;4889705;29;20029;-79
2021/04/01 12:34:11;;;;;;;34.17;22.45;;;23.00;38.80;;;;;;4879445;29;20056;-80
2021/04/01 12:36:39;;;;;;;37.42;24.75;;;23.30;40.20;;;;;;4878495;29;20052;-78
2021/04/01 12:39:07;;;;;;;33.55;22.48;;;23.30;40.70;;;;;;4878725;29;20036;-78
2021/04/01 12:41:39;;;;;;;36.45;24.05;;;23.20;40.00;;;;;;4878696;29;20048;-77
2021/04/01 12:44:06;;;;;;;38.70;23.77;;;23.20;39.90;;;;;;4878783;29;20053;-78
2021/04/01 12:46:45;;;;;;;38.67;23.35;;;23.00;40.50;;;;;;4878030;29;20048;-79
2021/04/01 12:49:16;;;;;;;38.58;25.05;;;23.10;40.60;;;;;;4879479;29;20049;-79
2021/04/01 12:51:56;;;;;;;36.83;22.95;;;23.10;40.90;;;;;;4878189;29;20049;-78
2021/04/01 12:54:32;;;;;;;33.90;23.15;;;23.00;40.80;;;;;;4878732;29;20037;-78
2021/04/01 12:57:02;;;;;;;33.10;22.42;;;23.10;40.90;;;;;;4878479;29;20049;-78
2021/04/01 12:59:37;;;;;;;35.00;22.25;;;23.40;41.20;;;;;;4878232;29;20487;-76
2021/04/01 13:04:31;;;;;;;33.47;21.73;;;23.50;41.60;;;;;;4878401;29;20037;-79
2021/04/01 13:07:21;;;;;;;40.42;23.75;;;23.50;41.50;;;;;;4879268;29;20053;-79
2021/04/01 13:12:15;;;;;;;32.22;20.48;;;23.80;41.50;;;;;;4881844;29;20359;-78
2021/04/01 13:15:04;;;;;;;33.47;21.48;;;23.90;41.10;;;;;;4881952;29;20041;-77
2021/04/01 13:17:30;;;;;;;33.70;22.05;;;23.70;41.80;;;;;;4882198;29;20061;-79
2021/04/01 13:19:57;;;;;;;34.50;21.10;;;23.70;42.50;;;;;;4892074;29;20033;-79
2021/04/01 13:22:33;;;;;;;38.17;21.98;;;23.80;42.40;;;;;;4880327;29;20045;-78
2021/04/01 13:25:14;;;;;;;31.27;20.88;;;23.60;42.50;;;;;;4881786;29;20045;-79
2021/04/01 13:27:44;;;;;;;37.30;23.48;;;23.90;42.50;;;;;;4880989;29;20040;-78
2021/04/01 13:30:11;;;;;;;38.30;24.50;;;23.80;42.40;;;;;;4881169;29;20037;-79
2021/04/01 13:35:58;;;;;;;37.42;24.08;;;23.80;42.60;;;;;;4881085;29;20049;-78
2021/04/01 13:38:00;;;;;;;38.85;26.42;;;23.80;41.60;;;;;;4879969;29;20052;-77
2021/04/01 13:40:27;;;;;;;38.72;24.38;;;23.80;41.90;;;;;;4881115;29;20064;-78
2021/04/01 13:42:56;;;;;;;38.47;23.85;;;23.80;42.10;;;;;;4878977;29;20268;-77
2021/04/01 13:45:25;;;;;;;35.10;23.73;;;24.10;41.70;;;;;;4880578;29;20136;-79
2021/04/01 13:48:04;;;;;;;39.22;25.50;;;24.20;41.60;;;;;;4880069;29;20463;-79
2021/04/01 13:50:38;;;;;;;36.80;23.35;;;24.10;41.30;;;;;;4880637;29;20364;-78
2021/04/01 13:55:43;;;;;;;36.17;22.35;;;24.00;41.10;;;;;;4880043;29;20045;-76
2021/04/01 14:01:13;;;;;;;29.80;20.33;;;23.90;40.40;;;;;;4880785;29;20037;-79
2021/04/01 14:04:17;;;;;;;30.55;18.63;;;23.90;40.10;;;;;;4880743;29;20036;-80
2021/04/01 14:09:35;;;;;;;24.13;16.10;;;24.70;39.70;;;;;;4880513;29;20052;-81
2021/04/01 14:12:07;;;;;;;24.77;14.55;;;25.00;38.90;;;;;;4879822;29;20403;-80
2021/04/01 14:14:37;;;;;;;23.88;15.75;;;24.90;38.20;;;;;;4880597;29;20048;-80
2021/04/01 14:17:05;;;;;;;21.75;13.73;;;24.90;39.00;;;;;;4884681;29;20045;-79
2021/04/01 14:19:32;;;;;;;20.10;13.85;;;24.60;37.80;;;;;;4886360;29;20041;-80
2021/04/01 14:22:00;;;;;;;19.30;11.68;;;24.80;37.70;;;;;;4879781;29;20033;-81
2021/04/01 14:24:32;;;;;;;19.75;11.40;;;24.50;37.00;;;;;;4879791;29;20045;-81
2021/04/01 14:29:40;;;;;;;19.63;11.73;;;24.60;36.00;;;;;;4879819;29;20033;-79
2021/04/01 14:32:07;;;;;;;19.05;11.00;;;24.40;35.60;;;;;;4880423;29;20419;-79
2021/04/01 14:34:37;;;;;;;18.77;11.07;;;24.50;36.10;;;;;;4880471;29;20033;-78
2021/04/01 14:37:04;;;;;;;15.57;10.18;;;24.40;34.60;;;;;;4880334;29;20049;-78
2021/04/01 14:39:31;;;;;;;18.75;10.00;;;24.50;34.40;;;;;;4880620;29;20060;-78
2021/04/01 14:42:08;;;;;;;17.55;10.40;;;24.40;32.80;;;;;;4879683;29;20041;-80
2021/04/01 14:44:35;;;;;;;15.35;9.70;;;24.40;33.80;;;;;;4878604;29;20053;-79
2021/04/01 14:47:02;;;;;;;19.00;8.93;;;24.40;32.10;;;;;;4880547;29;20037;-79
2021/04/01 14:49:28;;;;;;;15.68;8.00;;;24.40;32.00;;;;;;4880428;29;20025;-79
2021/04/01 14:51:55;;;;;;;14.23;7.07;;;24.30;31.50;;;;;;4879795;29;20033;-79
2021/04/01 14:54:24;;;;;;;16.13;6.85;;;24.40;31.40;;;;;;4880128;29;20048;-79
2021/04/01 14:56:56;;;;;;;13.67;8.07;;;24.40;31.30;;;;;;4879540;29;20044;-79
2021/04/01 14:59:25;;;;;;;13.88;8.50;;;24.60;32.60;;;;;;4880025;29;20055;-79
2021/04/01 15:01:52;;;;;;;18.42;8.18;;;24.60;33.30;;;;;;4880189;29;20519;-79
2021/04/01 15:04:19;;;;;;;20.92;9.88;;;24.50;32.20;;;;;;4879667;29;20033;-79
2021/04/01 15:06:50;;;;;;;16.27;9.10;;;24.30;33.70;;;;;;4879734;29;20041;-80
2021/04/01 15:09:18;;;;;;;13.23;7.60;;;24.20;34.00;;;;;;4878653;29;20044;-79
2021/04/01 15:11:46;;;;;;;13.68;7.88;;;24.20;33.70;;;;;;4879623;29;20045;-79
2021/04/01 15:14:13;;;;;;;15.82;8.25;;;24.30;33.70;;;;;;4879843;29;20383;-79
2021/04/01 15:16:40;;;;;;;15.63;7.47;;;24.50;34.20;;;;;;4881238;29;20045;-79